Time;durP1;ratioP1;P1;durP2;ratioP2;P2;SDS_P1;SDS_P2;PMS_P1;PMS_P2;Temp;Humidity;BMP_temperature;BMP_pressure;BME280_temperature;BME280_humidity;BME280_pressure;Samples;Min_cycle;Max_cycle;Signal;HPM_P1;HPM_P2
2023/05/02 00:00:20;;;;;;;;;;;;;;;;;;5033884;28;19905;-78
2023/05/02 00:02:46;;;;;;;;;;;;;;;;;;5033844;28;19905;-78
2023/05/02 00:05:12;;;;;;;;;;;;;;;;;;5033792;28;19916;-78
2023/05/02 00:07:38;;;;;;;;;;;;;;;;;;5033625;28;19909;-77
2023/05/02 00:10:04;;;;;;;;;;;;;;;;;;5033638;28;20059;-78
2023/05/02 00:12:31;;;;;;;;;;;;;;;;;;5033517;28;19905;-77
2023/05/02 00:14:57;;;;;;;;;;;;;;;;;;5048834;28;19916;-78
2023/05/02 00:17:23;;;;;;;;;;;;;;;;;;5033372;28;19905;-77
2023/05/02 00:19:49;;;;;;;;;;;;;;;;;;5033235;28;20324;-77
2023/05/02 00:22:15;;;;;;;;;;;;;;;;;;5035108;28;19905;-77
2023/05/02 00:24:40;;;;;;;;;;;;;;;;;;5037350;28;19909;-78
2023/05/02 00:27:06;;;;;;;;;;;;;;;;;;5037409;28;19999;-77
2023/05/02 00:29:32;;;;;;;;;;;;;;;;;;5037406;28;19905;-78
2023/05/02 00:31:58;;;;;;;;;;;;;;;;;;5037069;28;19909;-77
2023/05/02 00:34:24;;;;;;;;;;;;;;;;;;5037421;28;19912;-78
2023/05/02 00:36:50;;;;;;;;;;;;;;;;;;5037231;28;19943;-78
2023/05/02 00:39:16;;;;;;;;;;;;;;;;;;5037174;28;20363;-77
2023/05/02 00:41:42;;;;;;;;;;;;;;;;;;5037396;28;19912;-78
2023/05/02 00:44:14;;;;;;;;;;;;;;;;;;5036133;28;20256;-78
2023/05/02 00:46:39;;;;;;;;;;;;;;;;;;5036312;28;19905;-78
2023/05/02 00:49:05;;;;;;;;;;;;;;;;;;5036209;28;20003;-78
2023/05/02 00:51:31;;;;;;;;;;;;;;;;;;5036656;28;19917;-79
2023/05/02 00:53:57;;;;;;;;;;;;;;;;;;5036197;28;20321;-77
2023/05/02 00:56:23;;;;;;;;;;;;;;;;;;5035839;28;19905;-78
2023/05/02 00:58:49;;;;;;;;;;;;;;;;;;5035750;28;19936;-77
2023/05/02 01:01:15;;;;;;;;;;;;;;;;;;5035957;28;20295;-78
2023/05/02 01:03:41;;;;;;;;;;;;;;;;;;5035783;28;19967;-78
2023/05/02 01:06:07;;;;;;;;;;;;;;;;;;5034438;28;20315;-78
2023/05/02 01:08:33;;;;;;;;;;;;;;;;;;5016149;28;19941;-78
2023/05/02 01:10:59;;;;;;;;;;;;;;;;;;5015900;28;19912;-78
2023/05/02 01:13:25;;;;;;;;;;;;;;;;;;5016055;28;19905;-78
2023/05/02 01:15:51;;;;;;;;;;;;;;;;;;5016427;28;19905;-78
2023/05/02 01:18:17;;;;;;;;;;;;;;;;;;5016064;28;19964;-77
2023/05/02 01:20:43;;;;;;;;;;;;;;;;;;5015427;28;19940;-78
2023/05/02 01:23:09;;;;;;;;;;;;;;;;;;5015378;28;19956;-77
2023/05/02 01:25:35;;;;;;;;;;;;;;;;;;4998407;28;19912;-78
2023/05/02 01:28:01;;;;;;;;;;;;;;;;;;5023982;28;19909;-78
2023/05/02 01:30:27;;;;;;;;;;;;;;;;;;5035171;28;20054;-78
2023/05/02 01:32:54;;;;;;;;;;;;;;;;;;5035296;28;20256;-78
2023/05/02 01:35:20;;;;;;;;;;;;;;;;;;5034921;28;19905;-78
2023/05/02 01:37:46;;;;;;;;;;;;;;;;;;5034887;28;19905;-78
2023/05/02 01:40:12;;;;;;;;;;;;;;;;;;5034872;28;19954;-78
2023/05/02 01:42:38;;;;;;;;;;;;;;;;;;5034889;28;19905;-78
2023/05/02 01:45:03;;;;;;;;;;;;;;;;;;4995017;28;1179842;-78
2023/05/02 01:47:29;;;;;;;;;;;;;;;;;;5036599;28;19905;-78
2023/05/02 01:49:56;;;;;;;;;;;;;;;;;;5051472;28;19955;-78
2023/05/02 01:52:22;;;;;;;;;;;;;;;;;;5035879;28;20345;-78
2023/05/02 01:54:48;;;;;;;;;;;;;;;;;;5023095;28;19909;-78
2023/05/02 01:57:14;;;;;;;;;;;;;;;;;;5015845;28;20362;-77
2023/05/02 01:59:40;;;;;;;;;;;;;;;;;;5015855;28;19906;-77
2023/05/02 02:02:06;;;;;;;;;;;;;;;;;;5015928;28;20001;-77
2023/05/02 02:04:32;;;;;;;;;;;;;;;;;;5015758;28;19920;-77
2023/05/02 02:06:58;;;;;;;;;;;;;;;;;;5015797;28;19906;-78
2023/05/02 02:09:24;;;;;;;;;;;;;;;;;;5015842;28;19905;-78
2023/05/02 02:11:50;;;;;;;;;;;;;;;;;;5015623;28;19905;-78
2023/05/02 02:14:16;;;;;;;;;;;;;;;;;;5015709;28;19909;-78
2023/05/02 02:16:42;;;;;;;;;;;;;;;;;;5015429;28;19906;-77
2023/05/02 02:19:08;;;;;;;;;;;;;;;;;;5015621;28;19910;-78
2023/05/02 02:21:33;;;;;;;;;;;;;;;;;;5015494;28;19909;-77
2023/05/02 02:23:59;;;;;;;;;;;;;;;;;;4997615;28;19960;-78
2023/05/02 02:26:25;;;;;;;;;;;;;;;;;;4998063;28;19905;-77
2023/05/02 02:28:51;;;;;;;;;;;;;;;;;;5015450;28;20256;-78
2023/05/02 02:31:17;;;;;;;;;;;;;;;;;;5035158;28;20345;-77
2023/05/02 02:33:43;;;;;;;;;;;;;;;;;;5035260;28;19905;-78
2023/05/02 02:36:09;;;;;;;;;;;;;;;;;;5034796;28;19912;-77
2023/05/02 02:38:35;;;;;;;;;;;;;;;;;;5034708;28;19912;-77
2023/05/02 02:41:01;;;;;;;;;;;;;;;;;;5034859;28;19984;-77
2023/05/02 02:43:27;;;;;;;;;;;;;;;;;;5033554;28;19917;-78
2023/05/02 02:45:53;;;;;;;;;;;;;;;;;;5034143;28;19912;-77
2023/05/02 02:48:19;;;;;;;;;;;;;;;;;;5025335;28;20000;-78
2023/05/02 02:50:45;;;;;;;;;;;;;;;;;;5015139;28;20276;-78
2023/05/02 02:53:11;;;;;;;;;;;;;;;;;;5015073;28;19906;-78
2023/05/02 02:55:37;;;;;;;;;;;;;;;;;;5014854;28;19910;-77
2023/05/02 02:58:03;;;;;;;;;;;;;;;;;;5014719;28;20288;-77
2023/05/02 03:00:32;;;;;;;;;;;;;;;;;;4997036;28;19996;-77
2023/05/02 03:02:58;;;;;;;;;;;;;;;;;;5014687;28;20398;-78
2023/05/02 03:05:24;;;;;;;;;;;;;;;;;;5014549;28;19914;-78
2023/05/02 03:07:50;;;;;;;;;;;;;;;;;;5014667;28;19945;-77
2023/05/02 03:10:16;;;;;;;;;;;;;;;;;;5014709;28;19959;-77
2023/05/02 03:12:48;;;;;;;;;;;;;;;;;;5014664;28;19933;-77
2023/05/02 03:15:13;;;;;;;;;;;;;;;;;;5014661;28;20376;-77
2023/05/02 03:17:39;;;;;;;;;;;;;;;;;;5030758;28;19911;-77
2023/05/02 03:20:05;;;;;;;;;;;;;;;;;;5034287;28;19909;-77
2023/05/02 03:22:31;;;;;;;;;;;;;;;;;;5034021;28;19909;-77
2023/05/02 03:24:57;;;;;;;;;;;;;;;;;;5034015;28;19943;-77
2023/05/02 03:27:23;;;;;;;;;;;;;;;;;;5034002;28;19905;-77
2023/05/02 03:29:49;;;;;;;;;;;;;;;;;;5033979;28;20390;-77
2023/05/02 03:32:15;;;;;;;;;;;;;;;;;;5033983;28;19959;-77
2023/05/02 03:34:41;;;;;;;;;;;;;;;;;;5033892;28;19905;-78
2023/05/02 03:37:07;;;;;;;;;;;;;;;;;;5033782;28;19912;-77
2023/05/02 03:39:33;;;;;;;;;;;;;;;;;;5033703;28;20406;-77
2023/05/02 03:42:00;;;;;;;;;;;;;;;;;;5049054;28;19912;-77
2023/05/02 03:44:26;;;;;;;;;;;;;;;;;;5032830;28;20050;-77
2023/05/02 03:46:52;;;;;;;;;;;;;;;;;;5033931;28;19999;-78
2023/05/02 03:49:18;;;;;;;;;;;;;;;;;;5033760;28;19916;-78
2023/05/02 03:51:44;;;;;;;;;;;;;;;;;;5033538;28;19905;-77
2023/05/02 03:54:10;;;;;;;;;;;;;;;;;;5033488;28;19996;-76
2023/05/02 03:56:37;;;;;;;;;;;;;;;;;;5033264;28;19905;-77
2023/05/02 03:59:02;;;;;;;;;;;;;;;;;;5033155;28;19912;-77
2023/05/02 04:01:28;;;;;;;;;;;;;;;;;;5023063;28;19905;-77
2023/05/02 04:03:54;;;;;;;;;;;;;;;;;;5013538;28;19916;-77
2023/05/02 04:06:20;;;;;;;;;;;;;;;;;;5013671;28;19913;-77
2023/05/02 04:08:46;;;;;;;;;;;;;;;;;;5013613;28;20020;-77
2023/05/02 04:11:12;;;;;;;;;;;;;;;;;;5013485;28;19909;-77
2023/05/02 04:13:38;;;;;;;;;;;;;;;;;;5013467;28;19909;-77
2023/05/02 04:16:04;;;;;;;;;;;;;;;;;;5013583;28;19937;-77
2023/05/02 04:18:30;;;;;;;;;;;;;;;;;;5013403;28;19905;-77
2023/05/02 04:20:56;;;;;;;;;;;;;;;;;;5013368;28;19906;-77
2023/05/02 04:23:22;;;;;;;;;;;;;;;;;;5020207;28;19928;-77
2023/05/02 04:25:48;;;;;;;;;;;;;;;;;;5015630;28;20279;-77
2023/05/02 04:28:13;;;;;;;;;;;;;;;;;;5033092;28;19905;-77
2023/05/02 04:30:39;;;;;;;;;;;;;;;;;;5033041;28;20355;-77
2023/05/02 04:33:05;;;;;;;;;;;;;;;;;;5033159;28;19912;-77
2023/05/02 04:35:31;;;;;;;;;;;;;;;;;;5033203;28;20384;-77
2023/05/02 04:37:57;;;;;;;;;;;;;;;;;;5033019;28;19905;-77
2023/05/02 04:40:25;;;;;;;;;;;;;;;;;;5032890;28;19916;-77
2023/05/02 04:42:51;;;;;;;;;;;;;;;;;;5033088;28;19905;-77
2023/05/02 04:45:17;;;;;;;;;;;;;;;;;;5032144;28;19917;-77
2023/05/02 04:47:43;;;;;;;;;;;;;;;;;;5032942;28;19955;-77
2023/05/02 04:50:09;;;;;;;;;;;;;;;;;;5033118;28;20560;-77
2023/05/02 04:52:35;;;;;;;;;;;;;;;;;;5032992;28;19905;-77
2023/05/02 04:55:01;;;;;;;;;;;;;;;;;;5032868;28;20279;-77
2023/05/02 04:57:27;;;;;;;;;;;;;;;;;;5033015;28;19905;-77
2023/05/02 04:59:53;;;;;;;;;;;;;;;;;;5032842;28;19909;-77
2023/05/02 05:02:19;;;;;;;;;;;;;;;;;;5032964;28;20352;-77
2023/05/02 05:04:44;;;;;;;;;;;;;;;;;;5032897;28;19935;-77
2023/05/02 05:07:10;;;;;;;;;;;;;;;;;;5015188;28;19909;-77
2023/05/02 05:09:36;;;;;;;;;;;;;;;;;;5036616;28;19912;-77
2023/05/02 05:12:02;;;;;;;;;;;;;;;;;;5037060;28;19995;-77
2023/05/02 05:14:30;;;;;;;;;;;;;;;;;;5036625;28;19909;-78
2023/05/02 05:16:57;;;;;;;;;;;;;;;;;;5036729;28;19909;-77
2023/05/02 05:19:22;;;;;;;;;;;;;;;;;;5036934;28;19971;-77
2023/05/02 05:21:50;;;;;;;;;;;;;;;;;;5036227;28;19910;-77
2023/05/02 05:24:19;;;;;;;;;;;;;;;;;;5036455;28;19940;-77
2023/05/02 05:26:45;;;;;;;;;;;;;;;;;;5036487;28;19991;-77
2023/05/02 05:29:11;;;;;;;;;;;;;;;;;;5036277;28;19948;-77
2023/05/02 05:31:38;;;;;;;;;;;;;;;;;;5018487;28;19948;-77
2023/05/02 05:34:04;;;;;;;;;;;;;;;;;;5036249;28;19955;-77
2023/05/02 05:36:31;;;;;;;;;;;;;;;;;;5036677;28;19959;-79
2023/05/02 05:38:57;;;;;;;;;;;;;;;;;;5020811;28;19911;-78
2023/05/02 05:41:23;;;;;;;;;;;;;;;;;;5039108;28;19905;-79
2023/05/02 05:43:49;;;;;;;;;;;;;;;;;;5038389;28;19924;-79
2023/05/02 05:46:15;;;;;;;;;;;;;;;;;;5038746;28;19905;-79
2023/05/02 05:48:41;;;;;;;;;;;;;;;;;;5039103;28;19905;-79
2023/05/02 05:51:07;;;;;;;;;;;;;;;;;;5036898;28;19971;-79
2023/05/02 05:53:39;;;;;;;;;;;;;;;;;;5017380;28;19905;-79
2023/05/02 05:56:05;;;;;;;;;;;;;;;;;;5017374;28;19985;-79
2023/05/02 05:58:31;;;;;;;;;;;;;;;;;;5016495;28;19924;-79
2023/05/02 06:00:56;;;;;;;;;;;;;;;;;;5016642;28;19913;-79
2023/05/02 06:03:22;;;;;;;;;;;;;;;;;;5017216;28;19933;-79
2023/05/02 06:05:48;;;;;;;;;;;;;;;;;;5016801;28;19909;-79
2023/05/02 06:08:15;;;;;;;;;;;;;;;;;;5016203;28;19905;-79
2023/05/02 06:10:41;;;;;;;;;;;;;;;;;;5016755;28;19947;-79
2023/05/02 06:13:06;;;;;;;;;;;;;;;;;;5015864;28;19940;-77
2023/05/02 06:15:33;;;;;;;;;;;;;;;;;;5015643;28;19955;-77
2023/05/02 06:17:59;;;;;;;;;;;;;;;;;;5015472;28;19912;-76
2023/05/02 06:20:25;;;;;;;;;;;;;;;;;;5014351;28;19948;-76
2023/05/02 06:22:51;;;;;;;;;;;;;;;;;;5015438;28;19905;-76
2023/05/02 06:25:17;;;;;;;;;;;;;;;;;;5015475;28;19920;-76
2023/05/02 06:27:43;;;;;;;;;;;;;;;;;;4997887;28;19907;-77
2023/05/02 06:30:09;;;;;;;;;;;;;;;;;;5015233;28;19992;-76
2023/05/02 06:32:34;;;;;;;;;;;;;;;;;;5015292;28;20361;-77
2023/05/02 06:35:08;;;;;;;;;;;;;;;;;;5015323;28;19905;-76
2023/05/02 06:37:34;;;;;;;;;;;;;;;;;;5015607;28;19910;-76
2023/05/02 06:40:00;;;;;;;;;;;;;;;;;;5015032;28;19913;-76
2023/05/02 06:42:26;;;;;;;;;;;;;;;;;;5022420;28;20418;-76
2023/05/02 06:44:52;;;;;;;;;;;;;;;;;;5033820;28;19916;-77
2023/05/02 06:47:18;;;;;;;;;;;;;;;;;;5034866;28;19936;-77
2023/05/02 06:49:44;;;;;;;;;;;;;;;;;;5034723;28;19912;-76
2023/05/02 06:52:10;;;;;;;;;;;;;;;;;;5034800;28;19959;-76
2023/05/02 06:54:35;;;;;;;;;;;;;;;;;;5034365;28;19995;-76
2023/05/02 06:57:01;;;;;;;;;;;;;;;;;;5034547;28;19905;-76
2023/05/02 06:59:27;;;;;;;;;;;;;;;;;;5034501;28;20335;-76
2023/05/02 07:01:53;;;;;;;;;;;;;;;;;;5034493;28;19948;-76
2023/05/02 07:04:19;;;;;;;;;;;;;;;;;;5034338;28;19909;-77
2023/05/02 07:06:45;;;;;;;;;;;;;;;;;;5034249;28;19962;-76
2023/05/02 07:09:11;;;;;;;;;;;;;;;;;;5034369;28;19909;-77
2023/05/02 07:11:37;;;;;;;;;;;;;;;;;;5034218;28;19905;-76
2023/05/02 07:14:03;;;;;;;;;;;;;;;;;;5034217;28;19972;-77
2023/05/02 07:16:29;;;;;;;;;;;;;;;;;;5027589;28;19918;-76
2023/05/02 07:18:55;;;;;;;;;;;;;;;;;;5014199;28;19905;-76
2023/05/02 07:21:21;;;;;;;;;;;;;;;;;;5014265;28;20359;-77
2023/05/02 07:23:47;;;;;;;;;;;;;;;;;;5014142;28;19917;-76
2023/05/02 07:26:13;;;;;;;;;;;;;;;;;;5014525;28;19948;-77
2023/05/02 07:28:39;;;;;;;;;;;;;;;;;;5014221;28;19913;-76
2023/05/02 07:31:05;;;;;;;;;;;;;;;;;;5013942;28;19986;-77
2023/05/02 07:33:31;;;;;;;;;;;;;;;;;;5014234;28;19952;-76
2023/05/02 07:35:56;;;;;;;;;;;;;;;;;;5031895;28;20002;-77
2023/05/02 07:38:22;;;;;;;;;;;;;;;;;;5033890;28;20340;-77
2023/05/02 07:40:48;;;;;;;;;;;;;;;;;;5033629;28;19955;-77
2023/05/02 07:43:15;;;;;;;;;;;;;;;;;;5033802;28;19997;-77
2023/05/02 07:45:41;;;;;;;;;;;;;;;;;;5033453;28;20003;-77
2023/05/02 07:48:06;;;;;;;;;;;;;;;;;;5033856;28;19940;-77
2023/05/02 07:50:32;;;;;;;;;;;;;;;;;;5033689;28;20355;-77
2023/05/02 07:52:59;;;;;;;;;;;;;;;;;;5033794;28;19904;-77
2023/05/02 07:55:29;;;;;;;;;;;;;;;;;;5033892;28;19909;-77
2023/05/02 07:57:55;;;;;;;;;;;;;;;;;;5033939;28;19951;-77
2023/05/02 08:02:50;;;;;;;;;;;;;;;;;;5033910;28;19905;-77
2023/05/02 08:05:16;;;;;;;;;;;;;;;;;;5015692;28;19939;-77
2023/05/02 08:07:42;;;;;;;;;;;;;;;;;;5033479;28;19905;-76
2023/05/02 08:10:08;;;;;;;;;;;;;;;;;;5033547;28;19909;-77
2023/05/02 08:12:34;;;;;;;;;;;;;;;;;;5015724;28;19905;-77
2023/05/02 08:15:00;;;;;;;;;;;;;;;;;;5033531;28;19999;-77
2023/05/02 08:17:27;;;;;;;;;;;;;;;;;;5033487;28;19905;-76
2023/05/02 08:19:53;;;;;;;;;;;;;;;;;;5015911;28;19912;-77
2023/05/02 08:22:19;;;;;;;;;;;;;;;;;;5033530;28;19905;-77
2023/05/02 08:24:45;;;;;;;;;;;;;;;;;;5033206;28;19987;-77
2023/05/02 08:27:11;;;;;;;;;;;;;;;;;;5033540;28;19911;-77
2023/05/02 08:29:37;;;;;;;;;;;;;;;;;;5033489;28;19911;-77
2023/05/02 08:32:03;;;;;;;;;;;;;;;;;;5033347;28;20334;-77
2023/05/02 08:34:29;;;;;;;;;;;;;;;;;;5033497;28;19962;-77
2023/05/02 08:36:55;;;;;;;;;;;;;;;;;;5033600;28;19909;-77
2023/05/02 08:39:21;;;;;;;;;;;;;;;;;;5033405;28;19992;-77
2023/05/02 08:41:47;;;;;;;;;;;;;;;;;;5033400;28;19905;-77
2023/05/02 08:44:12;;;;;;;;;;;;;;;;;;5035027;28;19956;-77
2023/05/02 08:46:38;;;;;;;;;;;;;;;;;;5037271;28;19916;-77
2023/05/02 08:49:04;;;;;;;;;;;;;;;;;;5037168;28;19955;-77
2023/05/02 08:51:31;;;;;;;;;;;;;;;;;;5036991;28;19905;-77
2023/05/02 08:53:57;;;;;;;;;;;;;;;;;;5019030;28;19958;-76
2023/05/02 08:56:24;;;;;;;;;;;;;;;;;;5036760;28;20310;-77
2023/05/02 08:58:49;;;;;;;;;;;;;;;;;;5036554;28;20272;-77
2023/05/02 09:01:16;;;;;;;;;;;;;;;;;;5036679;28;19952;-77
2023/05/02 09:03:41;;;;;;;;;;;;;;;;;;5036655;28;19952;-76
2023/05/02 09:06:07;;;;;;;;;;;;;;;;;;5036719;28;19959;-77
2023/05/02 09:08:33;;;;;;;;;;;;;;;;;;5036516;28;19974;-76
2023/05/02 09:10:59;;;;;;;;;;;;;;;;;;5036486;28;19968;-77
2023/05/02 09:13:25;;;;;;;;;;;;;;;;;;5036512;28;20340;-77
2023/05/02 09:15:51;;;;;;;;;;;;;;;;;;5036412;28;19909;-76
2023/05/02 09:18:17;;;;;;;;;;;;;;;;;;5036504;28;19996;-77
2023/05/02 09:20:43;;;;;;;;;;;;;;;;;;5036268;28;19905;-77
2023/05/02 09:23:09;;;;;;;;;;;;;;;;;;5036426;28;19913;-77
2023/05/02 09:25:35;;;;;;;;;;;;;;;;;;5036049;28;19919;-77
2023/05/02 09:28:01;;;;;;;;;;;;;;;;;;5036295;28;19940;-77
2023/05/02 09:30:27;;;;;;;;;;;;;;;;;;5036150;28;19905;-77
2023/05/02 09:32:54;;;;;;;;;;;;;;;;;;5036240;28;19912;-77
2023/05/02 09:35:23;;;;;;;;;;;;;;;;;;5036082;28;19909;-77
2023/05/02 09:37:48;;;;;;;;;;;;;;;;;;5036019;28;19996;-76
2023/05/02 09:40:15;;;;;;;;;;;;;;;;;;5035638;28;19941;-76
2023/05/02 09:42:40;;;;;;;;;;;;;;;;;;5035701;28;19909;-76
2023/05/02 09:45:06;;;;;;;;;;;;;;;;;;5034511;28;19923;-76
2023/05/02 09:47:32;;;;;;;;;;;;;;;;;;5035662;28;19905;-76
2023/05/02 09:49:58;;;;;;;;;;;;;;;;;;5035677;28;19905;-76
2023/05/02 09:52:24;;;;;;;;;;;;;;;;;;5035600;28;19905;-77
2023/05/02 09:54:51;;;;;;;;;;;;;;;;;;5035170;28;20298;-76
2023/05/02 09:57:17;;;;;;;;;;;;;;;;;;5035451;28;19909;-76
2023/05/02 09:59:43;;;;;;;;;;;;;;;;;;5035352;28;20379;-77
2023/05/02 10:02:10;;;;;;;;;;;;;;;;;;5035406;28;19996;-77
2023/05/02 10:04:36;;;;;;;;;;;;;;;;;;5035504;28;19909;-77
2023/05/02 10:07:02;;;;;;;;;;;;;;;;;;5035289;28;19915;-76
2023/05/02 10:09:28;;;;;;;;;;;;;;;;;;5035278;28;20417;-76
2023/05/02 10:11:54;;;;;;;;;;;;;;;;;;5035332;28;19905;-77
2023/05/02 10:14:20;;;;;;;;;;;;;;;;;;5035125;28;19905;-77
2023/05/02 10:16:46;;;;;;;;;;;;;;;;;;5035011;28;19992;-77
2023/05/02 10:19:12;;;;;;;;;;;;;;;;;;5035116;28;20330;-77
2023/05/02 10:21:38;;;;;;;;;;;;;;;;;;5034939;28;19909;-77
2023/05/02 10:24:04;;;;;;;;;;;;;;;;;;5034841;28;19963;-77
2023/05/02 10:26:30;;;;;;;;;;;;;;;;;;5017105;28;19909;-77
2023/05/02 10:28:56;;;;;;;;;;;;;;;;;;5034878;28;20555;-77
2023/05/02 10:31:22;;;;;;;;;;;;;;;;;;5017162;28;19947;-77
2023/05/02 10:33:48;;;;;;;;;;;;;;;;;;5017433;28;19905;-77
2023/05/02 10:36:14;;;;;;;;;;;;;;;;;;5034670;28;19912;-76
2023/05/02 10:38:40;;;;;;;;;;;;;;;;;;5034769;28;19909;-77
2023/05/02 10:41:06;;;;;;;;;;;;;;;;;;5034589;28;20363;-77
2023/05/02 10:43:32;;;;;;;;;;;;;;;;;;5034702;28;19905;-77
2023/05/02 10:45:58;;;;;;;;;;;;;;;;;;5034957;28;20263;-76
2023/05/02 10:48:24;;;;;;;;;;;;;;;;;;5034591;28;19909;-77
2023/05/02 10:50:50;;;;;;;;;;;;;;;;;;5034652;28;19908;-77
2023/05/02 10:53:16;;;;;;;;;;;;;;;;;;5034739;28;20260;-77
2023/05/02 10:55:43;;;;;;;;;;;;;;;;;;5034510;28;20007;-76
2023/05/02 10:58:09;;;;;;;;;;;;;;;;;;5034694;28;19909;-76
2023/05/02 11:00:36;;;;;;;;;;;;;;;;;;5034479;28;19909;-77
2023/05/02 11:03:02;;;;;;;;;;;;;;;;;;5016813;28;20286;-77
2023/05/02 11:05:28;;;;;;;;;;;;;;;;;;5033898;28;20342;-77
2023/05/02 11:07:54;;;;;;;;;;;;;;;;;;5034731;28;19950;-77
2023/05/02 11:10:20;;;;;;;;;;;;;;;;;;5034761;28;19912;-77
2023/05/02 11:12:49;;;;;;;;;;;;;;;;;;5001053;28;19959;-77
2023/05/02 11:15:15;;;;;;;;;;;;;;;;;;5014386;28;19906;-76
2023/05/02 11:17:40;;;;;;;;;;;;;;;;;;5014386;28;20319;-76
2023/05/02 11:20:07;;;;;;;;;;;;;;;;;;5025440;28;19912;-76
2023/05/02 11:22:33;;;;;;;;;;;;;;;;;;5033918;28;19928;-77
2023/05/02 11:24:59;;;;;;;;;;;;;;;;;;5034189;28;19924;-77
2023/05/02 11:27:25;;;;;;;;;;;;;;;;;;5033994;28;19905;-77
2023/05/02 11:29:51;;;;;;;;;;;;;;;;;;5033958;28;19958;-77
2023/05/02 11:32:17;;;;;;;;;;;;;;;;;;5033968;28;19939;-77
2023/05/02 11:34:43;;;;;;;;;;;;;;;;;;5016077;28;19904;-77
2023/05/02 11:37:09;;;;;;;;;;;;;;;;;;5033790;28;19959;-76
2023/05/02 11:39:34;;;;;;;;;;;;;;;;;;5033545;28;19905;-77
2023/05/02 11:42:00;;;;;;;;;;;;;;;;;;5033651;28;19911;-77
2023/05/02 11:44:27;;;;;;;;;;;;;;;;;;5033434;28;20272;-77
2023/05/02 11:46:53;;;;;;;;;;;;;;;;;;5033559;28;19905;-76
2023/05/02 11:49:20;;;;;;;;;;;;;;;;;;5033284;28;20003;-77
2023/05/02 11:51:46;;;;;;;;;;;;;;;;;;5015451;28;19905;-76
2023/05/02 11:54:12;;;;;;;;;;;;;;;;;;5033244;28;20390;-76
2023/05/02 11:56:38;;;;;;;;;;;;;;;;;;5033371;28;19912;-76
2023/05/02 11:59:04;;;;;;;;;;;;;;;;;;5033337;28;19912;-77
2023/05/02 12:01:30;;;;;;;;;;;;;;;;;;5033394;28;19909;-76
2023/05/02 12:03:56;;;;;;;;;;;;;;;;;;5033232;28;19915;-77
2023/05/02 12:06:22;;;;;;;;;;;;;;;;;;5015624;28;19909;-77
2023/05/02 12:08:48;;;;;;;;;;;;;;;;;;5033376;28;19914;-77
2023/05/02 12:11:14;;;;;;;;;;;;;;;;;;5033249;28;19905;-77
2023/05/02 12:13:40;;;;;;;;;;;;;;;;;;5033209;28;19905;-77
2023/05/02 12:16:06;;;;;;;;;;;;;;;;;;5033239;28;19952;-77
2023/05/02 12:18:32;;;;;;;;;;;;;;;;;;5037068;28;19944;-76
2023/05/02 12:20:58;;;;;;;;;;;;;;;;;;5019512;28;19905;-76
2023/05/02 12:23:25;;;;;;;;;;;;;;;;;;5037367;28;20291;-77
2023/05/02 12:25:50;;;;;;;;;;;;;;;;;;5037372;28;20322;-77
2023/05/02 12:28:16;;;;;;;;;;;;;;;;;;5037335;28;20363;-76
2023/05/02 12:30:42;;;;;;;;;;;;;;;;;;5037114;28;19905;-77
2023/05/02 12:33:08;;;;;;;;;;;;;;;;;;5037404;28;19905;-77
2023/05/02 12:35:34;;;;;;;;;;;;;;;;;;5037007;28;19992;-77
2023/05/02 12:38:01;;;;;;;;;;;;;;;;;;5036860;28;20309;-77
2023/05/02 12:40:27;;;;;;;;;;;;;;;;;;5036659;28;19912;-76
2023/05/02 12:42:53;;;;;;;;;;;;;;;;;;5036912;28;20255;-77
2023/05/02 12:45:18;;;;;;;;;;;;;;;;;;5015562;28;20562;-76
2023/05/02 12:47:45;;;;;;;;;;;;;;;;;;5015842;28;19951;-77
2023/05/02 12:50:11;;;;;;;;;;;;;;;;;;5016938;28;19909;-77
2023/05/02 12:52:37;;;;;;;;;;;;;;;;;;5016988;28;19916;-76
2023/05/02 12:55:02;;;;;;;;;;;;;;;;;;5015571;28;19928;-76
2023/05/02 12:57:29;;;;;;;;;;;;;;;;;;5016705;28;19959;-77
2023/05/02 12:59:54;;;;;;;;;;;;;;;;;;5016741;28;20362;-76
2023/05/02 13:02:21;;;;;;;;;;;;;;;;;;5016666;28;19995;-77
2023/05/02 13:04:47;;;;;;;;;;;;;;;;;;5016853;28;19917;-77
2023/05/02 13:07:13;;;;;;;;;;;;;;;;;;5015347;28;19909;-76
2023/05/02 13:09:39;;;;;;;;;;;;;;;;;;5015313;28;19948;-76
2023/05/02 13:12:05;;;;;;;;;;;;;;;;;;5016693;28;20253;-76
2023/05/02 13:14:31;;;;;;;;;;;;;;;;;;5016494;28;19932;-76
2023/05/02 13:16:58;;;;;;;;;;;;;;;;;;5016369;28;20004;-77
2023/05/02 13:19:24;;;;;;;;;;;;;;;;;;5016333;28;19912;-76
2023/05/02 13:21:50;;;;;;;;;;;;;;;;;;5016526;28;20040;-77
2023/05/02 13:24:16;;;;;;;;;;;;;;;;;;5015043;28;20000;-76
2023/05/02 13:26:42;;;;;;;;;;;;;;;;;;5016233;28;20372;-76
2023/05/02 13:29:11;;;;;;;;;;;;;;;;;;5015560;28;19905;-76
2023/05/02 13:31:37;;;;;;;;;;;;;;;;;;5016325;28;19996;-76
2023/05/02 13:34:03;;;;;;;;;;;;;;;;;;5016405;28;19949;-77
2023/05/02 13:36:29;;;;;;;;;;;;;;;;;;5016184;28;19906;-77
2023/05/02 13:38:55;;;;;;;;;;;;;;;;;;5015989;28;20015;-76
2023/05/02 13:41:23;;;;;;;;;;;;;;;;;;5014882;28;19945;-76
2023/05/02 13:43:49;;;;;;;;;;;;;;;;;;5015974;28;19905;-77
2023/05/02 13:46:15;;;;;;;;;;;;;;;;;;5035713;28;19924;-77
2023/05/02 13:48:41;;;;;;;;;;;;;;;;;;5035681;28;19905;-77
2023/05/02 13:51:08;;;;;;;;;;;;;;;;;;5035694;28;19967;-77
2023/05/02 13:53:34;;;;;;;;;;;;;;;;;;5035593;28;19905;-76
2023/05/02 13:56:00;;;;;;;;;;;;;;;;;;5035478;28;20340;-77
2023/05/02 13:58:26;;;;;;;;;;;;;;;;;;5035421;28;19955;-77
2023/05/02 14:00:52;;;;;;;;;;;;;;;;;;5035368;28;19912;-77
2023/05/02 14:03:18;;;;;;;;;;;;;;;;;;5035745;28;19943;-78
2023/05/02 14:05:44;;;;;;;;;;;;;;;;;;5017703;28;20005;-78
2023/05/02 14:08:10;;;;;;;;;;;;;;;;;;5035306;28;20351;-78
2023/05/02 14:10:36;;;;;;;;;;;;;;;;;;5026032;28;20386;-78
2023/05/02 14:13:02;;;;;;;;;;;;;;;;;;5016432;28;19915;-78
2023/05/02 14:15:28;;;;;;;;;;;;;;;;;;5016065;28;19913;-78
2023/05/02 14:17:54;;;;;;;;;;;;;;;;;;5027545;28;19912;-77
2023/05/02 14:20:22;;;;;;;;;;;;;;;;;;5035112;28;19916;-78
2023/05/02 14:22:48;;;;;;;;;;;;;;;;;;5035555;28;19956;-78
2023/05/02 14:25:14;;;;;;;;;;;;;;;;;;5036042;28;19959;-78
2023/05/02 14:27:41;;;;;;;;;;;;;;;;;;5035336;28;19917;-78
2023/05/02 14:30:07;;;;;;;;;;;;;;;;;;5035158;28;20272;-78
2023/05/02 14:32:33;;;;;;;;;;;;;;;;;;5036213;28;19931;-78
2023/05/02 14:34:58;;;;;;;;;;;;;;;;;;5035457;28;19905;-77
2023/05/02 14:37:25;;;;;;;;;;;;;;;;;;5035021;28;20312;-78
2023/05/02 14:39:54;;;;;;;;;;;;;;;;;;5035238;28;19947;-78
2023/05/02 14:42:21;;;;;;;;;;;;;;;;;;5042250;28;19908;-78
2023/05/02 14:44:47;;;;;;;;;;;;;;;;;;5046292;28;19917;-78
2023/05/02 14:47:13;;;;;;;;;;;;;;;;;;5047941;28;19916;-78
2023/05/02 14:49:39;;;;;;;;;;;;;;;;;;5038271;28;19950;-78
2023/05/02 14:52:05;;;;;;;;;;;;;;;;;;5043302;28;19958;-77
2023/05/02 14:54:31;;;;;;;;;;;;;;;;;;5034379;28;19987;-77
2023/05/02 14:56:58;;;;;;;;;;;;;;;;;;5034298;28;19905;-77
2023/05/02 14:59:24;;;;;;;;;;;;;;;;;;5039827;28;20264;-78
2023/05/02 15:01:50;;;;;;;;;;;;;;;;;;5056214;28;19908;-78
2023/05/02 15:04:18;;;;;;;;;;;;;;;;;;5049588;28;19917;-79
2023/05/02 15:06:44;;;;;;;;;;;;;;;;;;5031255;28;19905;-79
2023/05/02 15:09:11;;;;;;;;;;;;;;;;;;5051078;28;20377;-80
2023/05/02 15:11:36;;;;;;;;;;;;;;;;;;5029225;28;19959;-79
2023/05/02 15:14:02;;;;;;;;;;;;;;;;;;5035851;28;19909;-79
2023/05/02 15:16:28;;;;;;;;;;;;;;;;;;5035932;28;19972;-79
2023/05/02 15:18:54;;;;;;;;;;;;;;;;;;5017663;28;20312;-79
2023/05/02 15:21:21;;;;;;;;;;;;;;;;;;5018234;28;19995;-78
2023/05/02 15:23:47;;;;;;;;;;;;;;;;;;5040972;28;19909;-79
2023/05/02 15:26:13;;;;;;;;;;;;;;;;;;5035605;28;19968;-79
2023/05/02 15:28:39;;;;;;;;;;;;;;;;;;5019443;28;20327;-79
2023/05/02 15:31:05;;;;;;;;;;;;;;;;;;5036066;28;20268;-79
2023/05/02 15:33:31;;;;;;;;;;;;;;;;;;5026396;28;20349;-79
2023/05/02 15:35:57;;;;;;;;;;;;;;;;;;5041346;28;19905;-79
2023/05/02 15:38:23;;;;;;;;;;;;;;;;;;5037882;28;19928;-80
2023/05/02 15:40:49;;;;;;;;;;;;;;;;;;5021324;28;19992;-79
2023/05/02 15:43:15;;;;;;;;;;;;;;;;;;5035121;28;19913;-79
2023/05/02 15:45:40;;;;;;;;;;;;;;;;;;5009012;28;19918;-79
2023/05/02 15:48:06;;;;;;;;;;;;;;;;;;5010972;28;19964;-79
2023/05/02 15:50:32;;;;;;;;;;;;;;;;;;5015265;28;19909;-79
2023/05/02 15:52:58;;;;;;;;;;;;;;;;;;5018727;28;19955;-78
2023/05/02 15:55:24;;;;;;;;;;;;;;;;;;5031881;28;19909;-78
2023/05/02 15:57:51;;;;;;;;;;;;;;;;;;5023188;28;19909;-78
2023/05/02 16:00:18;;;;;;;;;;;;;;;;;;5018058;28;19915;-78
2023/05/02 16:02:44;;;;;;;;;;;;;;;;;;5011131;28;20364;-78
2023/05/02 16:05:12;;;;;;;;;;;;;;;;;;5015459;28;19952;-78
2023/05/02 16:07:40;;;;;;;;;;;;;;;;;;5017179;28;19968;-78
2023/05/02 16:10:13;;;;;;;;;;;;;;;;;;5018477;28;19909;-78
2023/05/02 16:12:39;;;;;;;;;;;;;;;;;;5035916;28;20287;-79
2023/05/02 16:15:05;;;;;;;;;;;;;;;;;;5012326;28;19916;-78
2023/05/02 16:17:31;;;;;;;;;;;;;;;;;;5023062;28;19916;-78
2023/05/02 16:19:57;;;;;;;;;;;;;;;;;;5015610;28;19910;-78
2023/05/02 16:22:23;;;;;;;;;;;;;;;;;;5025176;28;19952;-78
2023/05/02 16:24:50;;;;;;;;;;;;;;;;;;5027206;28;19925;-79
2023/05/02 16:27:16;;;;;;;;;;;;;;;;;;5015153;28;19957;-78
2023/05/02 16:29:41;;;;;;;;;;;;;;;;;;5007232;28;20008;-79
2023/05/02 16:32:07;;;;;;;;;;;;;;;;;;5020882;28;19905;-78
2023/05/02 16:34:33;;;;;;;;;;;;;;;;;;5002605;28;20279;-79
2023/05/02 16:37:00;;;;;;;;;;;;;;;;;;5025878;28;19940;-79
2023/05/02 16:39:26;;;;;;;;;;;;;;;;;;5044060;28;19916;-79